sensor_id;sensor_type;location;lat;lon;timestamp;pressure;altitude;pressure_sealevel;temperature;humidity
9764;BME280;4921;43.214;27.936;2023-02-10T00:01:09;103395.78;;;-0.33;63.22
9764;BME280;4921;43.214;27.936;2023-02-10T00:03:39;103395.78;;;-0.35;63.25
9764;BME280;4921;43.214;27.936;2023-02-10T00:06:06;103397.47;;;-0.35;63.03
9764;BME280;4921;43.214;27.936;2023-02-10T00:08:34;103400.03;;;-0.38;62.45
9764;BME280;4921;43.214;27.936;2023-02-10T00:11:02;103399.28;;;-0.27;61.96
9764;BME280;4921;43.214;27.936;2023-02-10T00:13:30;103404.91;;;-0.62;62.58
9764;BME280;4921;43.214;27.936;2023-02-10T00:15:58;103399.69;;;-0.70;63.27
9764;BME280;4921;43.214;27.936;2023-02-10T00:18:26;103398.81;;;-0.69;63.42
9764;BME280;4921;43.214;27.936;2023-02-10T00:20:54;103404.84;;;-0.71;63.17
9764;BME280;4921;43.214;27.936;2023-02-10T00:23:21;103393.69;;;-0.67;62.79
9764;BME280;4921;43.214;27.936;2023-02-10T00:25:48;103387.53;;;-0.77;62.46
9764;BME280;4921;43.214;27.936;2023-02-10T00:28:15;103389.25;;;-0.79;62.60
9764;BME280;4921;43.214;27.936;2023-02-10T00:30:42;103388.28;;;-0.89;62.45
9764;BME280;4921;43.214;27.936;2023-02-10T00:33:09;103379.53;;;-1.00;62.87
9764;BME280;4921;43.214;27.936;2023-02-10T00:35:36;103381.31;;;-0.93;62.92
9764;BME280;4921;43.214;27.936;2023-02-10T00:38:05;103373.44;;;-1.06;63.41
9764;BME280;4921;43.214;27.936;2023-02-10T00:40:32;103362.22;;;-1.07;63.96
9764;BME280;4921;43.214;27.936;2023-02-10T00:42:59;103362.28;;;-1.04;64.45
9764;BME280;4921;43.214;27.936;2023-02-10T00:45:26;103365.63;;;-1.08;64.35
9764;BME280;4921;43.214;27.936;2023-02-10T00:47:53;103359.59;;;-1.10;64.55
9764;BME280;4921;43.214;27.936;2023-02-10T00:50:19;103363.81;;;-1.18;64.94
9764;BME280;4921;43.214;27.936;2023-02-10T00:52:47;103361.28;;;-1.15;64.93
9764;BME280;4921;43.214;27.936;2023-02-10T00:55:15;103363.03;;;-1.12;65.03
9764;BME280;4921;43.214;27.936;2023-02-10T00:57:42;103360.47;;;-1.11;64.09
9764;BME280;4921;43.214;27.936;2023-02-10T01:00:10;103354.47;;;-1.07;63.57
9764;BME280;4921;43.214;27.936;2023-02-10T01:02:37;103353.53;;;-1.13;63.85
9764;BME280;4921;43.214;27.936;2023-02-10T01:05:04;103356.91;;;-1.19;63.87
9764;BME280;4921;43.214;27.936;2023-02-10T01:07:32;103355.97;;;-1.25;64.37
9764;BME280;4921;43.214;27.936;2023-02-10T01:09:58;103350.13;;;-1.12;63.53
9764;BME280;4921;43.214;27.936;2023-02-10T01:12:27;103348.25;;;-1.24;63.71
9764;BME280;4921;43.214;27.936;2023-02-10T01:14:54;103351.66;;;-1.26;64.03
9764;BME280;4921;43.214;27.936;2023-02-10T01:17:21;103348.94;;;-1.35;63.95
9764;BME280;4921;43.214;27.936;2023-02-10T01:19:48;103358.31;;;-1.42;64.45
9764;BME280;4921;43.214;27.936;2023-02-10T01:22:16;103347.91;;;-1.46;64.13
9764;BME280;4921;43.214;27.936;2023-02-10T01:24:43;103344.22;;;-1.67;65.63
9764;BME280;4921;43.214;27.936;2023-02-10T01:27:10;103344.38;;;-1.53;65.24
9764;BME280;4921;43.214;27.936;2023-02-10T01:29:39;103344.63;;;-1.36;64.51
9764;BME280;4921;43.214;27.936;2023-02-10T01:32:05;103348.78;;;-1.46;64.67
9764;BME280;4921;43.214;27.936;2023-02-10T01:34:32;103352.25;;;-1.45;64.87
9764;BME280;4921;43.214;27.936;2023-02-10T01:36:59;103353.13;;;-1.45;64.60
9764;BME280;4921;43.214;27.936;2023-02-10T01:39:26;103351.34;;;-1.49;64.31
9764;BME280;4921;43.214;27.936;2023-02-10T01:41:53;103359.84;;;-1.55;64.54
9764;BME280;4921;43.214;27.936;2023-02-10T01:47:26;103361.50;;;-1.60;64.81
9764;BME280;4921;43.214;27.936;2023-02-10T01:49:53;103358.06;;;-1.60;64.46
9764;BME280;4921;43.214;27.936;2023-02-10T01:52:22;103360.50;;;-1.69;64.94
9764;BME280;4921;43.214;27.936;2023-02-10T01:54:54;103358.00;;;-1.65;64.80
9764;BME280;4921;43.214;27.936;2023-02-10T01:57:23;103363.09;;;-1.68;64.71
9764;BME280;4921;43.214;27.936;2023-02-10T01:59:50;103362.19;;;-1.71;64.45
9764;BME280;4921;43.214;27.936;2023-02-10T02:02:18;103359.31;;;-1.91;65.29
9764;BME280;4921;43.214;27.936;2023-02-10T02:04:49;103362.78;;;-1.87;65.31
9764;BME280;4921;43.214;27.936;2023-02-10T02:07:18;103355.47;;;-2.15;66.92
9764;BME280;4921;43.214;27.936;2023-02-10T02:09:47;103347.81;;;-2.11;66.94
9764;BME280;4921;43.214;27.936;2023-02-10T02:12:19;103355.50;;;-2.14;67.23
9764;BME280;4921;43.214;27.936;2023-02-10T02:14:51;103347.06;;;-2.05;67.49
9764;BME280;4921;43.214;27.936;2023-02-10T02:17:28;103347.81;;;-2.11;66.99
9764;BME280;4921;43.214;27.936;2023-02-10T02:20:25;103351.97;;;-2.19;67.53
9764;BME280;4921;43.214;27.936;2023-02-10T02:26:40;103340.69;;;-2.27;68.34
9764;BME280;4921;43.214;27.936;2023-02-10T02:29:31;103340.06;;;-2.11;67.29
9764;BME280;4921;43.214;27.936;2023-02-10T02:32:08;103332.19;;;-2.20;66.82
9764;BME280;4921;43.214;27.936;2023-02-10T02:34:39;103338.19;;;-2.22;67.79
9764;BME280;4921;43.214;27.936;2023-02-10T02:37:11;103343.41;;;-2.18;67.33
9764;BME280;4921;43.214;27.936;2023-02-10T02:39:40;103331.50;;;-2.10;66.53
9764;BME280;4921;43.214;27.936;2023-02-10T02:42:19;103334.84;;;-2.15;66.82
9764;BME280;4921;43.214;27.936;2023-02-10T02:44:49;103337.56;;;-2.06;66.27
9764;BME280;4921;43.214;27.936;2023-02-10T02:47:34;103331.50;;;-2.10;66.13
9764;BME280;4921;43.214;27.936;2023-02-10T02:50:15;103324.75;;;-2.03;65.81
9764;BME280;4921;43.214;27.936;2023-02-10T02:52:55;103331.53;;;-2.07;65.86
9764;BME280;4921;43.214;27.936;2023-02-10T02:55:33;103326.50;;;-2.01;65.43
9764;BME280;4921;43.214;27.936;2023-02-10T02:58:10;103324.75;;;-2.02;65.20
9764;BME280;4921;43.214;27.936;2023-02-10T03:00:42;103319.28;;;-2.23;65.44
9764;BME280;4921;43.214;27.936;2023-02-10T03:03:11;103329.91;;;-2.02;65.29
9764;BME280;4921;43.214;27.936;2023-02-10T03:05:38;103327.09;;;-2.15;66.02
9764;BME280;4921;43.214;27.936;2023-02-10T03:08:05;103316.78;;;-2.17;66.00
9764;BME280;4921;43.214;27.936;2023-02-10T03:10:32;103322.00;;;-2.12;66.26
9764;BME280;4921;43.214;27.936;2023-02-10T03:12:59;103321.28;;;-2.05;65.92
9764;BME280;4921;43.214;27.936;2023-02-10T03:15:26;103326.59;;;-1.96;65.37
9764;BME280;4921;43.214;27.936;2023-02-10T03:17:53;103322.97;;;-2.06;65.38
9764;BME280;4921;43.214;27.936;2023-02-10T03:20:21;103316.88;;;-2.12;65.70
9764;BME280;4921;43.214;27.936;2023-02-10T03:22:48;103317.75;;;-2.10;65.10
9764;BME280;4921;43.214;27.936;2023-02-10T03:25:15;103306.50;;;-2.15;65.73
9764;BME280;4921;43.214;27.936;2023-02-10T03:27:42;103306.41;;;-2.20;65.41
9764;BME280;4921;43.214;27.936;2023-02-10T03:30:09;103312.50;;;-2.18;65.42
9764;BME280;4921;43.214;27.936;2023-02-10T03:32:36;103310.72;;;-2.20;65.56
9764;BME280;4921;43.214;27.936;2023-02-10T03:35:03;103305.59;;;-2.17;65.22
9764;BME280;4921;43.214;27.936;2023-02-10T03:37:32;103306.13;;;-2.40;66.20
9764;BME280;4921;43.214;27.936;2023-02-10T03:39:59;103298.56;;;-2.29;65.56
9764;BME280;4921;43.214;27.936;2023-02-10T03:42:26;103296.09;;;-2.20;64.92
9764;BME280;4921;43.214;27.936;2023-02-10T03:44:53;103301.22;;;-2.23;65.00
9764;BME280;4921;43.214;27.936;2023-02-10T03:47:19;103289.06;;;-2.33;65.65
9764;BME280;4921;43.214;27.936;2023-02-10T03:49:47;103284.91;;;-2.23;65.30
9764;BME280;4921;43.214;27.936;2023-02-10T03:52:14;103289.22;;;-2.22;64.64
9764;BME280;4921;43.214;27.936;2023-02-10T03:54:42;103284.91;;;-2.22;65.05
9764;BME280;4921;43.214;27.936;2023-02-10T03:57:10;103281.59;;;-2.15;64.29
9764;BME280;4921;43.214;27.936;2023-02-10T03:59:37;103282.56;;;-2.07;63.87
9764;BME280;4921;43.214;27.936;2023-02-10T04:02:04;103278.22;;;-2.11;63.70
9764;BME280;4921;43.214;27.936;2023-02-10T04:04:31;103277.41;;;-2.07;63.42
9764;BME280;4921;43.214;27.936;2023-02-10T04:06:58;103273.84;;;-2.18;63.40
9764;BME280;4921;43.214;27.936;2023-02-10T04:09:25;103270.41;;;-2.17;63.27
9764;BME280;4921;43.214;27.936;2023-02-10T04:11:54;103274.78;;;-2.11;63.00
9764;BME280;4921;43.214;27.936;2023-02-10T04:14:21;103273.88;;;-2.13;63.36
9764;BME280;4921;43.214;27.936;2023-02-10T04:16:48;103279.88;;;-2.16;63.39
9764;BME280;4921;43.214;27.936;2023-02-10T04:19:15;103273.78;;;-2.19;63.43
9764;BME280;4921;43.214;27.936;2023-02-10T04:21:43;103264.41;;;-2.16;63.19
9764;BME280;4921;43.214;27.936;2023-02-10T04:24:10;103263.44;;;-2.22;63.69
9764;BME280;4921;43.214;27.936;2023-02-10T04:26:37;103270.41;;;-2.17;63.38
9764;BME280;4921;43.214;27.936;2023-02-10T04:29:05;103263.41;;;-2.24;64.04
9764;BME280;4921;43.214;27.936;2023-02-10T04:31:32;103273.72;;;-2.24;63.97
9764;BME280;4921;43.214;27.936;2023-02-10T04:33:59;103268.59;;;-2.22;63.68
9764;BME280;4921;43.214;27.936;2023-02-10T04:36:26;103268.47;;;-2.28;64.02
9764;BME280;4921;43.214;27.936;2023-02-10T04:38:53;103265.81;;;-2.35;64.45
9764;BME280;4921;43.214;27.936;2023-02-10T04:41:20;103276.22;;;-2.28;64.12
9764;BME280;4921;43.214;27.936;2023-02-10T04:43:47;103277.13;;;-2.26;63.70
9764;BME280;4921;43.214;27.936;2023-02-10T04:46:15;103272.81;;;-2.27;64.37
9764;BME280;4921;43.214;27.936;2023-02-10T04:48:42;103282.34;;;-2.22;63.89
9764;BME280;4921;43.214;27.936;2023-02-10T04:51:10;103272.81;;;-2.26;63.76
9764;BME280;4921;43.214;27.936;2023-02-10T04:53:39;103284.09;;;-2.19;63.45
9764;BME280;4921;43.214;27.936;2023-02-10T04:56:06;103281.38;;;-2.28;63.73
9764;BME280;4921;43.214;27.936;2023-02-10T04:58:33;103282.31;;;-2.25;63.58
9764;BME280;4921;43.214;27.936;2023-02-10T05:01:00;103275.41;;;-2.26;63.80
9764;BME280;4921;43.214;27.936;2023-02-10T05:03:29;103276.28;;;-2.25;63.77
9764;BME280;4921;43.214;27.936;2023-02-10T05:05:56;103268.47;;;-2.28;63.38
9764;BME280;4921;43.214;27.936;2023-02-10T05:08:23;103265.97;;;-2.25;63.23
9764;BME280;4921;43.214;27.936;2023-02-10T05:10:51;103273.63;;;-2.32;63.72
9764;BME280;4921;43.214;27.936;2023-02-10T05:13:18;103269.34;;;-2.28;63.87
9764;BME280;4921;43.214;27.936;2023-02-10T05:15:46;103260.63;;;-2.38;64.75
9764;BME280;4921;43.214;27.936;2023-02-10T05:18:13;103265.88;;;-2.33;64.16
9764;BME280;4921;43.214;27.936;2023-02-10T05:20:41;103268.38;;;-2.36;64.38
9764;BME280;4921;43.214;27.936;2023-02-10T05:23:08;103264.19;;;-2.31;64.53
9764;BME280;4921;43.214;27.936;2023-02-10T05:25:35;103266.69;;;-2.34;65.30
9764;BME280;4921;43.214;27.936;2023-02-10T05:28:02;103259.88;;;-2.31;64.93
9764;BME280;4921;43.214;27.936;2023-02-10T05:30:29;103270.09;;;-2.35;64.69
9764;BME280;4921;43.214;27.936;2023-02-10T05:32:56;103268.31;;;-2.39;64.79
9764;BME280;4921;43.214;27.936;2023-02-10T05:35:23;103274.38;;;-2.37;64.81
9764;BME280;4921;43.214;27.936;2023-02-10T05:37:52;103279.72;;;-2.25;64.56
9764;BME280;4921;43.214;27.936;2023-02-10T05:40:19;103272.00;;;-2.25;63.78
9764;BME280;4921;43.214;27.936;2023-02-10T05:42:46;103283.94;;;-2.30;64.26
9764;BME280;4921;43.214;27.936;2023-02-10T05:45:12;103283.94;;;-2.28;64.42
9764;BME280;4921;43.214;27.936;2023-02-10T05:50:25;103291.75;;;-2.24;64.36
9764;BME280;4921;43.214;27.936;2023-02-10T05:52:53;103294.16;;;-2.35;64.88
9764;BME280;4921;43.214;27.936;2023-02-10T05:55:20;103288.13;;;-2.37;64.50
9764;BME280;4921;43.214;27.936;2023-02-10T05:57:47;103287.16;;;-2.43;64.52
9764;BME280;4921;43.214;27.936;2023-02-10T06:00:16;103302.56;;;-2.46;65.22
9764;BME280;4921;43.214;27.936;2023-02-10T06:02:43;103294.22;;;-2.33;64.60
9764;BME280;4921;43.214;27.936;2023-02-10T06:05:10;103284.72;;;-2.34;64.63
9764;BME280;4921;43.214;27.936;2023-02-10T06:07:37;103289.88;;;-2.36;64.55
9764;BME280;4921;43.214;27.936;2023-02-10T06:10:06;103294.97;;;-2.37;64.32
9764;BME280;4921;43.214;27.936;2023-02-10T06:12:33;103296.00;;;-2.29;64.65
9764;BME280;4921;43.214;27.936;2023-02-10T06:15:00;103291.75;;;-2.24;64.32
9764;BME280;4921;43.214;27.936;2023-02-10T06:17:27;103294.47;;;-2.15;62.98
9764;BME280;4921;43.214;27.936;2023-02-10T06:19:54;103288.50;;;-2.12;63.25
9764;BME280;4921;43.214;27.936;2023-02-10T06:22:21;103291.16;;;-2.08;62.65
9764;BME280;4921;43.214;27.936;2023-02-10T06:24:48;103296.34;;;-2.05;62.08
9764;BME280;4921;43.214;27.936;2023-02-10T06:27:16;103302.38;;;-2.04;62.63
9764;BME280;4921;43.214;27.936;2023-02-10T06:29:43;103287.09;;;-1.92;62.29
9764;BME280;4921;43.214;27.936;2023-02-10T06:32:10;103301.03;;;-1.81;61.99
9764;BME280;4921;43.214;27.936;2023-02-10T06:34:37;103296.75;;;-1.79;62.15
9764;BME280;4921;43.214;27.936;2023-02-10T06:37:05;103299.44;;;-1.72;61.46
9764;BME280;4921;43.214;27.936;2023-02-10T06:39:32;103302.06;;;-1.69;60.99
9764;BME280;4921;43.214;27.936;2023-02-10T06:41:59;103297.88;;;-1.61;60.01
9764;BME280;4921;43.214;27.936;2023-02-10T06:44:27;103302.91;;;-1.68;59.79
9764;BME280;4921;43.214;27.936;2023-02-10T06:46:54;103304.75;;;-1.60;60.16
9764;BME280;4921;43.214;27.936;2023-02-10T06:49:21;103297.16;;;-1.49;59.61
9764;BME280;4921;43.214;27.936;2023-02-10T06:51:48;103296.38;;;-1.42;59.51
9764;BME280;4921;43.214;27.936;2023-02-10T06:54:15;103297.41;;;-1.29;59.37
9764;BME280;4921;43.214;27.936;2023-02-10T06:56:43;103295.03;;;-1.11;58.34
9764;BME280;4921;43.214;27.936;2023-02-10T06:59:11;103294.34;;;-0.97;57.75
9764;BME280;4921;43.214;27.936;2023-02-10T07:01:40;103295.28;;;-0.90;57.53
9764;BME280;4921;43.214;27.936;2023-02-10T07:04:07;103301.41;;;-0.79;56.86
9764;BME280;4921;43.214;27.936;2023-02-10T07:06:33;103301.56;;;-0.65;56.43
9764;BME280;4921;43.214;27.936;2023-02-10T07:09:00;103298.28;;;-0.46;57.26
9764;BME280;4921;43.214;27.936;2023-02-10T07:11:29;103299.25;;;-0.37;56.49
9764;BME280;4921;43.214;27.936;2023-02-10T07:13:56;103298.47;;;-0.27;56.32
9764;BME280;4921;43.214;27.936;2023-02-10T07:16:23;103295.13;;;-0.11;55.32
9764;BME280;4921;43.214;27.936;2023-02-10T07:18:51;103295.34;;;0.17;55.54
9764;BME280;4921;43.214;27.936;2023-02-10T07:21:18;103291.09;;;0.31;54.28
9764;BME280;4921;43.214;27.936;2023-02-10T07:23:46;103299.78;;;0.42;54.00
9764;BME280;4921;43.214;27.936;2023-02-10T07:26:12;103304.09;;;0.46;53.69
9764;BME280;4921;43.214;27.936;2023-02-10T07:28:43;103308.50;;;0.59;53.62
9764;BME280;4921;43.214;27.936;2023-02-10T07:31:10;103300.75;;;0.65;53.41
9764;BME280;4921;43.214;27.936;2023-02-10T07:33:37;103304.25;;;0.73;53.44
9764;BME280;4921;43.214;27.936;2023-02-10T07:36:07;103297.38;;;0.80;53.13
9764;BME280;4921;43.214;27.936;2023-02-10T07:38:34;103305.19;;;0.90;52.74
9764;BME280;4921;43.214;27.936;2023-02-10T07:41:01;103301.72;;;0.84;52.51
9764;BME280;4921;43.214;27.936;2023-02-10T07:43:28;103299.16;;;1.00;52.52
9764;BME280;4921;43.214;27.936;2023-02-10T07:45:55;103296.56;;;1.06;52.30
9764;BME280;4921;43.214;27.936;2023-02-10T07:48:23;103308.72;;;1.12;52.19
9764;BME280;4921;43.214;27.936;2023-02-10T07:50:50;103297.47;;;1.16;52.38
9764;BME280;4921;43.214;27.936;2023-02-10T07:53:19;103289.72;;;1.22;52.53
9764;BME280;4921;43.214;27.936;2023-02-10T07:55:47;103299.25;;;1.35;52.28
9764;BME280;4921;43.214;27.936;2023-02-10T07:58:14;103294.94;;;1.52;51.71
9764;BME280;4921;43.214;27.936;2023-02-10T08:00:41;103297.53;;;1.63;51.10
9764;BME280;4921;43.214;27.936;2023-02-10T08:03:11;103292.34;;;1.69;50.95
9764;BME280;4921;43.214;27.936;2023-02-10T08:05:38;103298.38;;;1.60;51.91
9764;BME280;4921;43.214;27.936;2023-02-10T08:08:07;103296.66;;;1.61;51.56
9764;BME280;4921;43.214;27.936;2023-02-10T08:10:36;103298.41;;;1.69;51.63
9764;BME280;4921;43.214;27.936;2023-02-10T08:13:03;103299.25;;;1.71;51.49
9764;BME280;4921;43.214;27.936;2023-02-10T08:15:30;103302.72;;;1.73;51.85
9764;BME280;4921;43.214;27.936;2023-02-10T08:17:58;103301.00;;;1.89;51.22
9764;BME280;4921;43.214;27.936;2023-02-10T08:20:25;103304.47;;;1.98;50.61
9764;BME280;4921;43.214;27.936;2023-02-10T08:22:53;103308.75;;;2.04;49.72
9764;BME280;4921;43.214;27.936;2023-02-10T08:25:20;103302.69;;;2.08;49.76
9764;BME280;4921;43.214;27.936;2023-02-10T08:27:49;103299.19;;;2.22;49.09
9764;BME280;4921;43.214;27.936;2023-02-10T08:30:16;103294.88;;;2.27;48.82
9764;BME280;4921;43.214;27.936;2023-02-10T08:32:43;103287.97;;;2.23;49.45
9764;BME280;4921;43.214;27.936;2023-02-10T08:35:10;103289.69;;;2.27;49.35
9764;BME280;4921;43.214;27.936;2023-02-10T08:37:37;103293.13;;;2.34;49.45
9764;BME280;4921;43.214;27.936;2023-02-10T08:40:05;103293.97;;;2.41;48.71
9764;BME280;4921;43.214;27.936;2023-02-10T08:42:33;103287.91;;;2.42;48.79
9764;BME280;4921;43.214;27.936;2023-02-10T08:45:01;103291.34;;;2.50;49.53
9764;BME280;4921;43.214;27.936;2023-02-10T08:47:28;103292.13;;;2.76;49.18
9764;BME280;4921;43.214;27.936;2023-02-10T08:49:55;103295.38;;;3.14;47.79
9764;BME280;4921;43.214;27.936;2023-02-10T08:52:23;103298.50;;;3.63;45.54
9764;BME280;4921;43.214;27.936;2023-02-10T08:54:50;103297.41;;;3.91;43.79
9764;BME280;4921;43.214;27.936;2023-02-10T08:57:17;103283.16;;;4.25;42.54
9764;BME280;4921;43.214;27.936;2023-02-10T08:59:44;103289.59;;;4.69;40.87
9764;BME280;4921;43.214;27.936;2023-02-10T09:02:13;103273.72;;;4.88;39.14
9764;BME280;4921;43.214;27.936;2023-02-10T09:04:40;103263.81;;;5.11;38.68
9764;BME280;4921;43.214;27.936;2023-02-10T09:07:07;103274.66;;;5.42;38.06
9764;BME280;4921;43.214;27.936;2023-02-10T09:09:38;103270.09;;;5.55;37.36
9764;BME280;4921;43.214;27.936;2023-02-10T09:12:05;103272.84;;;5.46;36.25
9764;BME280;4921;43.214;27.936;2023-02-10T09:14:32;103257.19;;;5.46;36.48
9764;BME280;4921;43.214;27.936;2023-02-10T09:16:59;103265.50;;;5.70;35.85
9764;BME280;4921;43.214;27.936;2023-02-10T09:19:28;103277.56;;;5.77;36.44
9764;BME280;4921;43.214;27.936;2023-02-10T09:21:55;103271.16;;;5.96;35.68
9764;BME280;4921;43.214;27.936;2023-02-10T09:24:22;103252.66;;;6.08;35.61
9764;BME280;4921;43.214;27.936;2023-02-10T09:26:49;103260.09;;;6.30;35.40
9764;BME280;4921;43.214;27.936;2023-02-10T09:29:16;103259.19;;;6.31;34.01
9764;BME280;4921;43.214;27.936;2023-02-10T09:31:43;103256.50;;;6.35;34.09
9764;BME280;4921;43.214;27.936;2023-02-10T09:34:10;103255.31;;;6.50;33.99
9764;BME280;4921;43.214;27.936;2023-02-10T09:36:39;103258.25;;;6.76;33.39
9764;BME280;4921;43.214;27.936;2023-02-10T09:39:06;103250.91;;;6.93;32.33
9764;BME280;4921;43.214;27.936;2023-02-10T09:41:45;103239.97;;;7.13;31.26
9764;BME280;4921;43.214;27.936;2023-02-10T09:44:16;103243.94;;;7.30;30.87
9764;BME280;4921;43.214;27.936;2023-02-10T09:46:57;103242.75;;;7.43;31.16
9764;BME280;4921;43.214;27.936;2023-02-10T09:52:32;103232.31;;;7.76;30.99
9764;BME280;4921;43.214;27.936;2023-02-10T09:55:09;103222.47;;;7.84;30.74
9764;BME280;4921;43.214;27.936;2023-02-10T09:57:41;103222.25;;;7.93;31.73
9764;BME280;4921;43.214;27.936;2023-02-10T10:00:17;103220.97;;;8.07;30.72
9764;BME280;4921;43.214;27.936;2023-02-10T10:02:50;103216.22;;;8.21;30.03
9764;BME280;4921;43.214;27.936;2023-02-10T10:07:50;103203.38;;;8.43;29.78
9764;BME280;4921;43.214;27.936;2023-02-10T10:10:22;103209.19;;;8.22;29.91
9764;BME280;4921;43.214;27.936;2023-02-10T10:12:51;103198.13;;;8.43;30.58
9764;BME280;4921;43.214;27.936;2023-02-10T10:15:19;103196.50;;;8.68;30.38
9764;BME280;4921;43.214;27.936;2023-02-10T10:18:00;103194.94;;;8.90;28.60
9764;BME280;4921;43.214;27.936;2023-02-10T10:20:41;103189.19;;;9.05;29.59
9764;BME280;4921;43.214;27.936;2023-02-10T10:23:42;103191.13;;;9.27;28.08
9764;BME280;4921;43.214;27.936;2023-02-10T10:26:26;103181.06;;;9.39;27.28
9764;BME280;4921;43.214;27.936;2023-02-10T10:29:09;103178.66;;;9.58;26.60
9764;BME280;4921;43.214;27.936;2023-02-10T10:31:42;103165.66;;;9.55;26.61
9764;BME280;4921;43.214;27.936;2023-02-10T10:34:15;103173.75;;;9.73;25.96
9764;BME280;4921;43.214;27.936;2023-02-10T10:36:44;103167.22;;;9.85;25.94
9764;BME280;4921;43.214;27.936;2023-02-10T10:39:15;103173.25;;;9.87;25.83
9764;BME280;4921;43.214;27.936;2023-02-10T10:41:44;103169.38;;;9.97;25.92
9764;BME280;4921;43.214;27.936;2023-02-10T10:44:15;103162.19;;;10.02;25.46
9764;BME280;4921;43.214;27.936;2023-02-10T10:46:45;103160.19;;;10.09;25.19
9764;BME280;4921;43.214;27.936;2023-02-10T10:49:13;103147.91;;;10.09;25.23
9764;BME280;4921;43.214;27.936;2023-02-10T10:51:40;103150.53;;;10.09;25.76
9764;BME280;4921;43.214;27.936;2023-02-10T10:54:14;103156.34;;;10.19;25.13
9764;BME280;4921;43.214;27.936;2023-02-10T10:56:43;103151.22;;;10.16;25.78
9764;BME280;4921;43.214;27.936;2023-02-10T10:59:15;103151.09;;;9.94;26.17
9764;BME280;4921;43.214;27.936;2023-02-10T11:01:45;103153.50;;;10.00;26.00
9764;BME280;4921;43.214;27.936;2023-02-10T11:04:14;103144.59;;;10.04;26.05
9764;BME280;4921;43.214;27.936;2023-02-10T11:06:43;103143.84;;;10.01;26.66
9764;BME280;4921;43.214;27.936;2023-02-10T11:09:31;103138.69;;;9.97;26.25
9764;BME280;4921;43.214;27.936;2023-02-10T11:12:03;103132.81;;;9.91;26.66
9764;BME280;4921;43.214;27.936;2023-02-10T11:14:37;103127.63;;;9.89;26.24
9764;BME280;4921;43.214;27.936;2023-02-10T11:17:19;103125.81;;;9.90;25.59
9764;BME280;4921;43.214;27.936;2023-02-10T11:19:54;103125.31;;;9.80;25.65
9764;BME280;4921;43.214;27.936;2023-02-10T11:22:22;103116.00;;;9.72;26.11
9764;BME280;4921;43.214;27.936;2023-02-10T11:24:52;103108.59;;;9.58;26.34
9764;BME280;4921;43.214;27.936;2023-02-10T11:27:19;103115.84;;;9.52;26.44
9764;BME280;4921;43.214;27.936;2023-02-10T11:29:49;103108.13;;;9.47;26.90
9764;BME280;4921;43.214;27.936;2023-02-10T11:32:19;103107.38;;;9.44;26.58
9764;BME280;4921;43.214;27.936;2023-02-10T11:34:48;103098.75;;;9.40;26.18
9764;BME280;4921;43.214;27.936;2023-02-10T11:37:23;103099.72;;;9.38;26.40
9764;BME280;4921;43.214;27.936;2023-02-10T11:39:54;103103.38;;;9.34;26.96
9764;BME280;4921;43.214;27.936;2023-02-10T11:42:23;103099.16;;;9.28;26.27
9764;BME280;4921;43.214;27.936;2023-02-10T11:45:00;103096.19;;;9.12;27.57
9764;BME280;4921;43.214;27.936;2023-02-10T11:47:29;103093.06;;;9.01;28.12
9764;BME280;4921;43.214;27.936;2023-02-10T11:49:57;103095.09;;;8.93;27.23
9764;BME280;4921;43.214;27.936;2023-02-10T11:52:27;103097.84;;;8.90;27.52
9764;BME280;4921;43.214;27.936;2023-02-10T11:54:56;103097.13;;;8.85;28.51
9764;BME280;4921;43.214;27.936;2023-02-10T11:57:41;103103.53;;;8.77;29.20
9764;BME280;4921;43.214;27.936;2023-02-10T12:00:32;103091.66;;;8.65;29.76
9764;BME280;4921;43.214;27.936;2023-02-10T12:03:33;103086.75;;;8.55;30.35
9764;BME280;4921;43.214;27.936;2023-02-10T12:06:05;103082.03;;;8.38;31.34
9764;BME280;4921;43.214;27.936;2023-02-10T12:08:42;103079.63;;;8.30;31.84
9764;BME280;4921;43.214;27.936;2023-02-10T12:11:19;103082.13;;;8.35;30.93
9764;BME280;4921;43.214;27.936;2023-02-10T12:13:56;103077.75;;;8.35;30.83
9764;BME280;4921;43.214;27.936;2023-02-10T12:16:34;103081.38;;;8.31;30.19
9764;BME280;4921;43.214;27.936;2023-02-10T12:19:10;103077.19;;;8.24;30.04
9764;BME280;4921;43.214;27.936;2023-02-10T12:21:49;103069.88;;;8.06;31.08
9764;BME280;4921;43.214;27.936;2023-02-10T12:24:36;103075.06;;;8.08;31.08
9764;BME280;4921;43.214;27.936;2023-02-10T12:27:13;103077.84;;;8.03;31.00
9764;BME280;4921;43.214;27.936;2023-02-10T12:29:51;103071.41;;;7.84;31.33
9764;BME280;4921;43.214;27.936;2023-02-10T12:32:32;103088.25;;;7.76;32.49
9764;BME280;4921;43.214;27.936;2023-02-10T12:35:25;103071.59;;;7.78;31.14
9764;BME280;4921;43.214;27.936;2023-02-10T12:38:04;103078.47;;;7.82;31.15
9764;BME280;4921;43.214;27.936;2023-02-10T12:40:49;103087.63;;;7.67;32.41
9764;BME280;4921;43.214;27.936;2023-02-10T12:43:47;103084.13;;;7.67;31.88
9764;BME280;4921;43.214;27.936;2023-02-10T12:46:24;103079.72;;;7.69;31.63
9764;BME280;4921;43.214;27.936;2023-02-10T12:49:10;103084.75;;;7.75;31.91
9764;BME280;4921;43.214;27.936;2023-02-10T12:51:48;103077.22;;;7.64;31.63
9764;BME280;4921;43.214;27.936;2023-02-10T12:54:19;103073.66;;;7.67;32.06
9764;BME280;4921;43.214;27.936;2023-02-10T12:56:51;103075.28;;;7.71;31.90
9764;BME280;4921;43.214;27.936;2023-02-10T12:59:23;103065.16;;;7.59;31.87
9764;BME280;4921;43.214;27.936;2023-02-10T13:01:55;103061.69;;;7.57;32.29
9764;BME280;4921;43.214;27.936;2023-02-10T13:04:26;103046.16;;;7.51;31.97
9764;BME280;4921;43.214;27.936;2023-02-10T13:06:58;103051.34;;;7.54;32.59
9764;BME280;4921;43.214;27.936;2023-02-10T13:09:30;103058.44;;;7.50;33.08
9764;BME280;4921;43.214;27.936;2023-02-10T13:12:13;103049.78;;;7.47;32.33
9764;BME280;4921;43.214;27.936;2023-02-10T13:14:44;103048.09;;;7.44;32.42
9764;BME280;4921;43.214;27.936;2023-02-10T13:17:12;103054.94;;;7.50;32.29
9764;BME280;4921;43.214;27.936;2023-02-10T13:19:49;103061.69;;;7.57;31.83
9764;BME280;4921;43.214;27.936;2023-02-10T13:22:20;103059.94;;;7.57;31.92
9764;BME280;4921;43.214;27.936;2023-02-10T13:25:14;103059.69;;;7.66;31.97
9764;BME280;4921;43.214;27.936;2023-02-10T13:27:53;103056.31;;;7.63;31.69
9764;BME280;4921;43.214;27.936;2023-02-10T13:30:54;103055.38;;;7.65;32.24
9764;BME280;4921;43.214;27.936;2023-02-10T13:33:33;103046.66;;;7.65;32.14
9764;BME280;4921;43.214;27.936;2023-02-10T13:36:11;103048.16;;;7.74;33.01